Time;durP1;ratioP1;P1;durP2;ratioP2;P2;SDS_P1;SDS_P2;PMS_P1;PMS_P2;Temp;Humidity;BMP_temperature;BMP_pressure;BME280_temperature;BME280_humidity;BME280_pressure;Samples;Min_cycle;Max_cycle;Signal;HPM_P1;HPM_P2
2022/01/09 00:00:22;;;;;;;23.35;12.75;;;1.10;85.50;;;;;;5072193;28;20361;-74
2022/01/09 00:02:47;;;;;;;21.40;12.05;;;1.00;85.20;;;;;;5072702;28;20043;-74
2022/01/09 00:05:14;;;;;;;22.60;12.65;;;1.00;85.10;;;;;;5072687;28;20025;-74
2022/01/09 00:07:40;;;;;;;18.90;12.77;;;1.00;85.30;;;;;;5071859;28;20033;-74
2022/01/09 00:10:07;;;;;;;21.92;13.38;;;1.00;85.20;;;;;;5072696;28;20021;-75
2022/01/09 00:12:33;;;;;;;23.80;13.95;;;1.00;84.50;;;;;;5072108;28;20025;-74
2022/01/09 00:14:59;;;;;;;25.02;16.05;;;1.00;84.30;;;;;;5072324;28;20496;-75
2022/01/09 00:17:25;;;;;;;27.48;15.70;;;1.00;84.70;;;;;;5072150;28;20028;-75
2022/01/09 00:19:50;;;;;;;24.65;15.75;;;1.00;84.70;;;;;;5072348;28;20028;-74
2022/01/09 00:22:20;;;;;;;27.33;15.90;;;0.90;85.00;;;;;;5072600;28;20115;-75
2022/01/09 00:24:46;;;;;;;28.17;15.25;;;0.90;85.00;;;;;;5072605;28;20420;-74
2022/01/09 00:27:11;;;;;;;24.15;15.57;;;0.90;85.10;;;;;;5072616;28;20063;-74
2022/01/09 00:29:37;;;;;;;22.17;14.75;;;0.90;85.30;;;;;;5072052;28;20100;-74
2022/01/09 00:32:03;;;;;;;22.95;13.88;;;0.80;85.40;;;;;;5072118;28;20454;-74
2022/01/09 00:34:29;;;;;;;20.42;14.18;;;0.80;85.00;;;;;;5071892;28;20092;-74
2022/01/09 00:36:54;;;;;;;24.90;14.30;;;0.80;85.30;;;;;;5072730;28;20033;-74
2022/01/09 00:39:21;;;;;;;25.83;14.82;;;0.80;85.10;;;;;;5071637;28;20130;-73
2022/01/09 00:41:47;;;;;;;24.83;14.60;;;0.70;85.10;;;;;;5072266;28;20500;-74
2022/01/09 00:44:12;;;;;;;22.95;14.40;;;0.70;85.00;;;;;;5074992;28;20108;-74
2022/01/09 00:46:38;;;;;;;22.90;13.80;;;0.70;85.30;;;;;;5075805;28;20242;-74
2022/01/09 00:49:04;;;;;;;24.73;15.13;;;0.70;85.40;;;;;;5076248;28;20072;-74
2022/01/09 00:51:31;;;;;;;23.33;15.07;;;0.70;85.20;;;;;;5075711;28;20074;-73
2022/01/09 00:53:56;;;;;;;24.95;15.35;;;0.70;85.20;;;;;;5076162;28;20028;-74
2022/01/09 00:56:22;;;;;;;24.90;15.07;;;0.70;85.10;;;;;;5075768;28;20139;-74
2022/01/09 00:58:48;;;;;;;27.15;15.50;;;0.70;85.10;;;;;;5075719;28;20028;-74
2022/01/09 01:01:14;;;;;;;26.63;15.38;;;0.60;85.20;;;;;;5075759;28;20033;-74
2022/01/09 01:03:39;;;;;;;26.58;15.40;;;0.60;85.40;;;;;;5075656;28;20258;-74
2022/01/09 01:06:05;;;;;;;20.90;13.15;;;0.60;85.40;;;;;;5075681;28;20058;-74
2022/01/09 01:08:30;;;;;;;21.50;12.75;;;0.50;85.30;;;;;;5075366;28;20025;-74
2022/01/09 01:10:56;;;;;;;19.30;12.15;;;0.50;85.70;;;;;;5079233;28;20025;-74
2022/01/09 01:13:22;;;;;;;23.27;13.88;;;0.50;85.70;;;;;;5080794;28;20028;-74
2022/01/09 01:15:48;;;;;;;22.08;13.57;;;0.50;85.30;;;;;;5079753;28;20036;-74
2022/01/09 01:18:13;;;;;;;25.63;13.70;;;0.50;84.90;;;;;;5077217;28;20081;-74
2022/01/09 01:20:58;;;;;;;24.08;12.32;;;0.50;85.50;;;;;;5075033;28;20028;-74
2022/01/09 01:23:24;;;;;;;20.58;13.10;;;0.40;85.20;;;;;;5075326;28;20060;-74
2022/01/09 01:25:51;;;;;;;20.88;13.20;;;0.40;85.40;;;;;;5078314;28;20021;-74
2022/01/09 01:28:18;;;;;;;19.27;13.35;;;0.40;85.50;;;;;;5077324;28;20047;-74
2022/01/09 01:30:43;;;;;;;24.05;13.13;;;0.40;85.90;;;;;;5075118;28;20036;-73
2022/01/09 01:33:09;;;;;;;20.50;13.10;;;0.40;85.50;;;;;;5075352;28;20028;-73
2022/01/09 01:35:35;;;;;;;21.70;13.52;;;0.30;84.30;;;;;;5074933;28;20421;-73
2022/01/09 01:38:01;;;;;;;21.63;13.32;;;0.30;84.70;;;;;;5075390;28;20032;-73
2022/01/09 01:40:26;;;;;;;25.98;13.82;;;0.30;84.50;;;;;;5074479;28;20029;-74
2022/01/09 01:42:52;;;;;;;22.30;12.68;;;0.30;84.40;;;;;;5075321;28;20104;-74
2022/01/09 01:45:18;;;;;;;21.92;14.10;;;0.30;84.20;;;;;;5074985;28;20051;-74
2022/01/09 01:47:44;;;;;;;29.52;15.05;;;0.20;83.80;;;;;;5074524;28;20091;-74
2022/01/09 01:50:12;;;;;;;26.83;16.40;;;0.20;83.60;;;;;;5075113;28;20111;-74
2022/01/09 01:52:43;;;;;;;24.42;16.02;;;0.10;84.30;;;;;;5074599;28;20346;-73
2022/01/09 01:55:12;;;;;;;33.75;17.42;;;0.00;85.00;;;;;;5073831;28;20060;-74
2022/01/09 01:57:40;;;;;;;29.02;17.90;;;0.00;85.40;;;;;;5074523;28;20375;-74
2022/01/09 02:00:08;;;;;;;31.63;18.30;;;-0.10;85.40;;;;;;5075236;28;20116;-73
2022/01/09 02:02:34;;;;;;;31.60;19.23;;;-0.10;85.60;;;;;;5074143;28;20020;-73
2022/01/09 02:04:59;;;;;;;29.95;19.20;;;-0.20;86.00;;;;;;5074536;28;20448;-74
2022/01/09 02:07:27;;;;;;;28.58;18.45;;;-0.30;86.00;;;;;;5073976;28;20082;-73
2022/01/09 02:09:53;;;;;;;30.00;19.77;;;-0.30;87.20;;;;;;5075062;28;20024;-74
2022/01/09 02:12:18;;;;;;;31.48;21.08;;;-0.40;87.50;;;;;;5074732;28;20058;-74
2022/01/09 02:14:46;;;;;;;36.08;20.77;;;-0.40;88.30;;;;;;5073950;28;20029;-74
2022/01/09 02:17:20;;;;;;;30.75;20.67;;;-0.50;89.40;;;;;;5057297;28;20071;-74
2022/01/09 02:19:51;;;;;;;36.20;21.98;;;-0.50;90.30;;;;;;5074149;28;20028;-74
2022/01/09 02:22:17;;;;;;;30.77;20.92;;;-0.50;90.50;;;;;;5074636;28;20105;-74
2022/01/09 02:24:44;;;;;;;36.45;21.60;;;-0.60;90.90;;;;;;5074764;28;20111;-75
2022/01/09 02:27:10;;;;;;;37.35;22.60;;;-0.60;91.20;;;;;;5075989;28;20028;-74
2022/01/09 02:29:35;;;;;;;33.85;22.02;;;-0.60;91.10;;;;;;5077572;28;20484;-75
2022/01/09 02:32:01;;;;;;;34.60;22.33;;;-0.70;91.20;;;;;;5075259;28;20024;-74
2022/01/09 02:34:27;;;;;;;37.42;22.15;;;-0.70;91.50;;;;;;5074864;28;20028;-73
2022/01/09 02:36:52;;;;;;;32.17;21.52;;;-0.70;91.90;;;;;;5074731;28;20393;-74
2022/01/09 02:39:18;;;;;;;40.53;23.15;;;-0.70;91.90;;;;;;5074267;28;20024;-74
2022/01/09 02:41:44;;;;;;;36.80;23.40;;;-0.70;92.00;;;;;;5073781;28;20028;-74
2022/01/09 02:44:10;;;;;;;34.80;21.95;;;-0.80;92.10;;;;;;5073985;28;20028;-74
2022/01/09 02:46:58;;;;;;;33.17;21.42;;;-0.80;92.50;;;;;;5073529;28;20111;-74
2022/01/09 02:49:26;;;;;;;30.65;20.70;;;-0.80;92.40;;;;;;5074132;28;20028;-74
2022/01/09 02:51:52;;;;;;;36.65;21.15;;;-0.80;92.40;;;;;;5073473;28;20021;-74
2022/01/09 02:57:02;;;;;;;33.80;21.38;;;-0.90;92.70;;;;;;5073935;28;20443;-75
2022/01/09 02:59:27;;;;;;;34.38;21.02;;;-1.00;92.90;;;;;;5073814;28;20025;-74
2022/01/09 03:01:53;;;;;;;36.55;22.75;;;-1.00;93.20;;;;;;5073655;28;20465;-73
2022/01/09 03:04:19;;;;;;;32.03;21.42;;;-1.00;93.10;;;;;;5073650;28;20074;-73
2022/01/09 03:06:44;;;;;;;38.20;22.02;;;-1.00;93.30;;;;;;5072623;28;20039;-73
2022/01/09 03:09:10;;;;;;;35.50;22.23;;;-1.00;93.50;;;;;;5073264;28;20025;-74
2022/01/09 03:11:37;;;;;;;36.08;21.42;;;-1.10;93.60;;;;;;5072751;28;20063;-73
2022/01/09 03:14:03;;;;;;;30.50;20.65;;;-1.00;93.80;;;;;;5073682;28;20024;-73
2022/01/09 03:16:29;;;;;;;36.75;22.90;;;-1.10;93.90;;;;;;5073468;28;20078;-74
2022/01/09 03:18:55;;;;;;;34.05;21.42;;;-1.10;93.90;;;;;;5073108;28;20028;-73
2022/01/09 03:21:21;;;;;;;38.38;22.75;;;-1.10;93.70;;;;;;5073332;28;20032;-73
2022/01/09 03:23:46;;;;;;;38.53;22.83;;;-1.10;94.10;;;;;;5073035;28;20024;-74
2022/01/09 03:26:12;;;;;;;39.65;22.77;;;-1.10;94.40;;;;;;5073219;28;20020;-74
2022/01/09 03:28:37;;;;;;;37.60;22.92;;;-1.10;94.50;;;;;;5072663;28;20078;-73
2022/01/09 03:31:03;;;;;;;36.42;23.48;;;-1.10;94.70;;;;;;5073136;28;20382;-73
2022/01/09 03:33:29;;;;;;;41.22;24.55;;;-1.10;94.90;;;;;;5055253;28;20423;-74
2022/01/09 03:35:54;;;;;;;36.97;24.15;;;-1.10;95.10;;;;;;5072481;28;20032;-74
2022/01/09 03:38:38;;;;;;;40.15;24.48;;;-1.10;94.90;;;;;;5073363;28;20405;-74
2022/01/09 03:41:04;;;;;;;35.20;22.52;;;-1.10;95.10;;;;;;5072772;28;20073;-74
2022/01/09 03:43:30;;;;;;;34.92;23.17;;;-1.10;95.30;;;;;;5073009;28;20419;-74
2022/01/09 03:45:55;;;;;;;33.97;21.25;;;-1.10;95.00;;;;;;5072765;28;20465;-74
2022/01/09 03:48:21;;;;;;;34.03;22.85;;;-1.10;95.10;;;;;;5072512;28;20044;-74
2022/01/09 03:50:51;;;;;;;39.00;23.45;;;-1.10;95.40;;;;;;5072380;28;20034;-74
2022/01/09 03:53:16;;;;;;;36.97;21.92;;;-1.10;95.50;;;;;;5073084;28;20380;-74
2022/01/09 03:55:42;;;;;;;32.75;22.20;;;-1.20;95.30;;;;;;5072511;28;20048;-74
2022/01/09 03:58:08;;;;;;;38.22;22.02;;;-1.20;95.20;;;;;;5072532;28;20102;-74
2022/01/09 04:00:33;;;;;;;33.83;22.67;;;-1.20;95.40;;;;;;5072353;28;20048;-72
2022/01/09 04:02:59;;;;;;;35.47;22.38;;;-1.30;95.90;;;;;;5072741;28;20107;-74
2022/01/09 04:05:25;;;;;;;34.60;21.60;;;-1.30;95.80;;;;;;5072862;28;20078;-74
2022/01/09 04:07:51;;;;;;;34.67;21.25;;;-1.30;96.10;;;;;;5072051;28;20115;-74
2022/01/09 04:10:18;;;;;;;36.53;21.67;;;-1.30;96.10;;;;;;5072497;28;20107;-73
2022/01/09 04:12:49;;;;;;;32.40;20.30;;;-1.30;96.10;;;;;;5072032;28;20039;-72
2022/01/09 04:15:15;;;;;;;;;;;-1.30;95.90;;;;;;5073044;28;20021;-73
2022/01/09 04:17:51;;;;;;;32.65;20.88;;;-1.30;95.70;;;;;;5071393;28;19948;-74
2022/01/09 04:20:19;;;;;;;35.80;21.92;;;-1.30;95.50;;;;;;5072816;28;20021;-73
2022/01/09 04:22:45;;;;;;;35.45;21.73;;;-1.30;95.30;;;;;;5071694;28;20028;-73
2022/01/09 04:25:11;;;;;;;34.95;20.77;;;-1.40;95.40;;;;;;5072550;28;20028;-74
2022/01/09 04:27:37;;;;;;;35.40;21.15;;;-1.50;95.50;;;;;;5053782;28;20098;-72
2022/01/09 04:30:04;;;;;;;37.25;22.02;;;-1.50;95.60;;;;;;5072462;28;20029;-74
2022/01/09 04:32:31;;;;;;;32.58;21.67;;;-1.50;96.10;;;;;;5072381;28;20101;-73
2022/01/09 04:34:56;;;;;;;33.63;21.48;;;-1.50;96.20;;;;;;5071768;28;20032;-73
2022/01/09 04:37:22;;;;;;;35.50;21.92;;;-1.50;96.50;;;;;;5054306;28;20032;-73
2022/01/09 04:39:50;;;;;;;33.75;21.33;;;-1.40;96.20;;;;;;5071882;28;20127;-74
2022/01/09 04:42:16;;;;;;;31.35;20.02;;;-1.50;96.00;;;;;;5072282;28;20032;-73
2022/01/09 04:44:42;;;;;;;32.85;20.98;;;-1.50;96.00;;;;;;5072197;28;20025;-73
2022/01/09 04:47:12;;;;;;;31.60;19.67;;;-1.50;96.20;;;;;;5076143;28;20366;-74
2022/01/09 04:49:41;;;;;;;33.58;20.80;;;-1.40;96.40;;;;;;5075677;28;20536;-73
2022/01/09 04:52:11;;;;;;;32.28;20.98;;;-1.40;96.20;;;;;;5058231;28;20078;-73
2022/01/09 04:54:37;;;;;;;30.42;18.65;;;-1.40;96.00;;;;;;5075491;28;20110;-73
2022/01/09 04:57:03;;;;;;;31.30;19.90;;;-1.40;96.00;;;;;;5074826;28;20465;-74
2022/01/09 04:59:29;;;;;;;29.77;19.58;;;-1.40;95.70;;;;;;5057002;28;20029;-74
2022/01/09 05:01:54;;;;;;;31.83;19.13;;;-1.40;95.50;;;;;;5054216;28;20051;-73
2022/01/09 05:04:20;;;;;;;31.48;19.77;;;-1.40;95.80;;;;;;5072400;28;20031;-73
2022/01/09 05:06:46;;;;;;;32.22;20.25;;;-1.30;96.00;;;;;;5071638;28;20106;-73
2022/01/09 05:09:11;;;;;;;30.65;19.80;;;-1.30;95.80;;;;;;5072064;28;20024;-73
2022/01/09 05:11:38;;;;;;;30.17;19.80;;;-1.30;95.40;;;;;;5071668;28;20029;-73
2022/01/09 05:14:04;;;;;;;29.27;19.25;;;-1.30;95.20;;;;;;5071720;28;20381;-73
2022/01/09 05:16:30;;;;;;;32.53;19.90;;;-1.30;94.90;;;;;;5072206;28;20033;-73
2022/01/09 05:19:03;;;;;;;31.50;20.25;;;-1.30;94.60;;;;;;5071408;28;20036;-73
2022/01/09 05:21:29;;;;;;;28.17;20.02;;;-1.30;94.60;;;;;;5071934;28;20025;-73
2022/01/09 05:23:54;;;;;;;30.83;20.83;;;-1.30;94.50;;;;;;5071134;28;20028;-73
2022/01/09 05:26:20;;;;;;;28.55;19.58;;;-1.40;94.40;;;;;;5071790;28;20547;-73
2022/01/09 05:28:46;;;;;;;31.38;19.17;;;-1.40;94.60;;;;;;5071518;28;20063;-73
2022/01/09 05:31:11;;;;;;;28.15;20.00;;;-1.40;94.70;;;;;;5075744;28;20139;-74
2022/01/09 05:33:37;;;;;;;29.80;20.63;;;-1.40;94.90;;;;;;5079187;28;20046;-73
2022/01/09 05:36:04;;;;;;;31.77;20.85;;;-1.40;95.00;;;;;;5076146;28;20020;-73
2022/01/09 05:38:30;;;;;;;32.40;20.00;;;-1.40;95.00;;;;;;5076113;28;20029;-73
2022/01/09 05:40:56;;;;;;;30.98;19.83;;;-1.40;94.70;;;;;;5075038;28;20107;-73
2022/01/09 05:43:21;;;;;;;34.10;21.02;;;-1.40;94.80;;;;;;5057737;28;20059;-74
2022/01/09 05:45:47;;;;;;;32.40;19.65;;;-1.40;94.60;;;;;;5074942;28;20426;-74
2022/01/09 05:48:13;;;;;;;32.50;19.55;;;-1.40;94.70;;;;;;5075227;28;20067;-74
2022/01/09 05:50:38;;;;;;;30.70;19.35;;;-1.40;94.60;;;;;;5057362;28;20476;-74
2022/01/09 05:53:04;;;;;;;28.50;19.42;;;-1.40;94.50;;;;;;5074390;28;20032;-74
2022/01/09 05:55:30;;;;;;;31.08;20.63;;;-1.40;94.80;;;;;;5075070;28;20045;-74
2022/01/09 05:57:56;;;;;;;32.60;19.77;;;-1.40;94.80;;;;;;5074686;28;20035;-74
2022/01/09 06:00:22;;;;;;;30.30;18.98;;;-1.40;94.90;;;;;;5074651;28;20044;-75
2022/01/09 06:02:49;;;;;;;33.97;20.95;;;-1.40;94.50;;;;;;5074383;28;20353;-74
2022/01/09 06:05:15;;;;;;;31.63;20.35;;;-1.40;94.20;;;;;;5074546;28;20079;-74
2022/01/09 06:07:42;;;;;;;31.80;20.75;;;-1.40;93.90;;;;;;5074390;28;20485;-74
2022/01/09 06:10:12;;;;;;;34.60;20.20;;;-1.40;94.20;;;;;;5074673;28;20017;-74
2022/01/09 06:12:38;;;;;;;32.05;19.88;;;-1.40;94.30;;;;;;5073639;28;20096;-74
2022/01/09 06:15:05;;;;;;;35.67;20.92;;;-1.40;93.90;;;;;;5074065;28;20029;-74
2022/01/09 06:17:38;;;;;;;34.78;20.17;;;-1.40;94.00;;;;;;5074284;28;20035;-75
2022/01/09 06:20:05;;;;;;;30.67;19.48;;;-1.50;93.60;;;;;;5074037;28;20074;-74
2022/01/09 06:22:31;;;;;;;33.60;20.60;;;-1.50;94.10;;;;;;5074513;28;20040;-74
2022/01/09 06:24:56;;;;;;;32.15;20.38;;;-1.50;94.20;;;;;;5073924;28;20025;-74
2022/01/09 06:27:22;;;;;;;30.42;19.77;;;-1.50;94.40;;;;;;5074438;28;20071;-70
2022/01/09 06:29:48;;;;;;;33.75;20.63;;;-1.50;94.30;;;;;;5073767;28;20056;-69
2022/01/09 06:32:14;;;;;;;30.58;19.98;;;-1.50;94.30;;;;;;5073981;28;20501;-70
2022/01/09 06:34:42;;;;;;;29.60;19.75;;;-1.50;94.10;;;;;;5055949;28;20100;-70
2022/01/09 06:37:10;;;;;;;28.20;19.83;;;-1.50;94.30;;;;;;5073978;28;20033;-70
2022/01/09 06:39:36;;;;;;;28.50;19.35;;;-1.50;94.50;;;;;;5073901;28;20032;-69
2022/01/09 06:42:02;;;;;;;30.80;20.52;;;-1.50;94.70;;;;;;5072952;28;20055;-69
2022/01/09 06:44:28;;;;;;;30.55;19.95;;;-1.50;94.40;;;;;;5074279;28;20029;-71
2022/01/09 06:46:54;;;;;;;32.03;20.17;;;-1.50;94.50;;;;;;5073464;28;20440;-69
2022/01/09 06:49:19;;;;;;;33.63;20.95;;;-1.50;94.60;;;;;;5077133;28;20016;-70
2022/01/09 06:51:45;;;;;;;32.08;21.17;;;-1.50;94.40;;;;;;5081809;28;20056;-70
2022/01/09 06:54:13;;;;;;;32.55;20.60;;;-1.50;94.50;;;;;;5079282;28;20485;-70
2022/01/09 06:56:39;;;;;;;34.83;20.95;;;-1.40;94.60;;;;;;5077213;28;20107;-70
2022/01/09 06:59:05;;;;;;;30.98;20.80;;;-1.40;94.70;;;;;;5073042;28;20389;-70
2022/01/09 07:01:31;;;;;;;31.92;20.15;;;-1.40;94.70;;;;;;5073551;28;20468;-71
2022/01/09 07:03:56;;;;;;;32.05;20.70;;;-1.40;94.50;;;;;;5076381;28;20024;-69
2022/01/09 07:06:22;;;;;;;35.00;22.17;;;-1.40;94.40;;;;;;5077289;28;20064;-70
2022/01/09 07:08:48;;;;;;;36.05;22.58;;;-1.40;95.00;;;;;;5055558;28;20052;-70
2022/01/09 07:11:14;;;;;;;31.98;21.00;;;-1.40;95.30;;;;;;5072611;28;20025;-69
2022/01/09 07:13:40;;;;;;;33.78;21.42;;;-1.30;95.00;;;;;;5072861;28;20504;-70
2022/01/09 07:16:05;;;;;;;35.38;22.92;;;-1.30;95.10;;;;;;5072749;28;20029;-69
2022/01/09 07:18:31;;;;;;;40.05;22.65;;;-1.30;94.80;;;;;;5073038;28;20036;-70
2022/01/09 07:20:57;;;;;;;33.78;22.52;;;-1.30;95.00;;;;;;5072127;28;20029;-68
2022/01/09 07:23:23;;;;;;;35.40;22.80;;;-1.20;95.40;;;;;;5073124;28;20025;-68
2022/01/09 07:25:48;;;;;;;33.20;23.10;;;-1.20;95.20;;;;;;5054530;28;20100;-69
2022/01/09 07:28:14;;;;;;;35.38;23.27;;;-1.20;95.30;;;;;;5073099;28;20075;-69
2022/01/09 07:30:40;;;;;;;36.10;24.08;;;-1.20;95.10;;;;;;5072839;28;20029;-69
2022/01/09 07:33:06;;;;;;;41.08;24.17;;;-1.20;95.40;;;;;;5074606;28;20123;-70
2022/01/09 07:35:33;;;;;;;37.90;23.77;;;-1.20;95.30;;;;;;5075269;28;20094;-69
2022/01/09 07:37:58;;;;;;;36.45;24.05;;;-1.10;95.40;;;;;;5073634;28;20021;-69
2022/01/09 07:40:24;;;;;;;38.88;24.15;;;-1.10;94.90;;;;;;5073438;28;20035;-69
2022/01/09 07:42:50;;;;;;;42.35;26.35;;;-1.10;94.80;;;;;;5073109;28;20377;-70
2022/01/09 07:45:19;;;;;;;33.97;23.40;;;-1.10;94.70;;;;;;5073336;28;20024;-69
2022/01/09 07:47:45;;;;;;;39.95;24.52;;;-1.20;95.10;;;;;;5073081;28;20063;-69
2022/01/09 07:50:11;;;;;;;35.78;23.90;;;-1.10;95.40;;;;;;5072501;28;20528;-68
2022/01/09 07:52:38;;;;;;;38.45;24.38;;;-1.10;95.40;;;;;;5071746;28;20393;-68
2022/01/09 07:55:05;;;;;;;34.75;23.55;;;-1.10;95.00;;;;;;5072203;28;20045;-69
2022/01/09 07:57:31;;;;;;;39.35;24.73;;;-1.10;95.30;;;;;;5072877;28;20056;-69
2022/01/09 07:59:57;;;;;;;38.03;25.05;;;-1.10;95.70;;;;;;5072284;28;20067;-69
2022/01/09 08:02:23;;;;;;;38.80;25.48;;;-1.10;95.90;;;;;;5072509;28;20029;-69
2022/01/09 08:04:49;;;;;;;39.05;24.48;;;-1.10;95.60;;;;;;5072254;28;20029;-69
2022/01/09 08:09:59;;;;;;;35.25;23.55;;;-1.00;95.90;;;;;;5072227;28;20059;-69
2022/01/09 08:12:25;;;;;;;38.50;24.55;;;-1.00;95.70;;;;;;5072288;28;20024;-68
2022/01/09 08:14:50;;;;;;;34.33;23.45;;;-0.90;95.60;;;;;;5072564;28;20020;-68
2022/01/09 08:17:16;;;;;;;41.63;24.48;;;-0.90;95.40;;;;;;5072286;28;20058;-68
2022/01/09 08:19:42;;;;;;;36.03;24.33;;;-0.80;95.40;;;;;;5072421;28;20476;-69
2022/01/09 08:22:08;;;;;;;38.22;25.02;;;-0.80;95.20;;;;;;5071916;28;20540;-69
2022/01/09 08:24:35;;;;;;;38.20;25.30;;;-0.80;95.20;;;;;;5072359;28;20059;-69
2022/01/09 08:27:02;;;;;;;37.42;25.40;;;-0.80;95.10;;;;;;5071697;28;20033;-69
2022/01/09 08:29:28;;;;;;;39.28;24.98;;;-0.70;95.10;;;;;;5071961;28;20052;-69
2022/01/09 08:31:53;;;;;;;42.97;25.63;;;-0.70;94.90;;;;;;5053786;28;20110;-69
2022/01/09 08:34:19;;;;;;;40.40;26.92;;;-0.70;94.50;;;;;;5072230;28;20359;-69
2022/01/09 08:36:45;;;;;;;37.42;25.48;;;-0.70;94.80;;;;;;5072376;28;20443;-69
2022/01/09 08:39:11;;;;;;;39.05;25.55;;;-0.70;95.00;;;;;;5071707;28;20056;-69
2022/01/09 08:41:37;;;;;;;38.70;25.27;;;-0.60;95.00;;;;;;5072372;28;20074;-69
2022/01/09 08:44:04;;;;;;;38.50;26.02;;;-0.60;94.50;;;;;;5071558;28;20024;-69
2022/01/09 08:46:31;;;;;;;38.17;25.73;;;-0.60;94.60;;;;;;5072666;28;20147;-69
2022/01/09 08:48:58;;;;;;;42.63;27.10;;;-0.60;95.10;;;;;;5053667;28;20035;-69
2022/01/09 08:51:24;;;;;;;38.70;25.70;;;-0.60;95.10;;;;;;5072127;28;20055;-69
2022/01/09 08:53:53;;;;;;;38.88;25.52;;;-0.60;95.40;;;;;;5072163;28;20454;-69
2022/01/09 08:56:20;;;;;;;41.45;26.45;;;-0.50;95.60;;;;;;5071673;28;20048;-69
2022/01/09 08:58:48;;;;;;;37.55;24.95;;;-0.50;95.70;;;;;;5072332;28;20029;-68
2022/01/09 09:01:14;;;;;;;39.45;25.35;;;-0.50;95.30;;;;;;5053578;28;20441;-69
2022/01/09 09:03:41;;;;;;;39.20;24.55;;;-0.50;95.90;;;;;;5071634;28;20458;-69
2022/01/09 09:06:14;;;;;;;37.10;23.60;;;-0.40;96.30;;;;;;5075367;28;20066;-69
2022/01/09 09:08:40;;;;;;;37.97;23.77;;;-0.40;96.20;;;;;;5075894;28;20037;-69
2022/01/09 09:11:07;;;;;;;37.97;23.77;;;-0.30;96.20;;;;;;5075408;28;20198;-69
2022/01/09 09:13:33;;;;;;;35.33;23.90;;;-0.40;95.60;;;;;;5075809;28;20071;-69
2022/01/09 09:16:00;;;;;;;37.80;25.15;;;-0.40;95.50;;;;;;5075000;28;20447;-69
2022/01/09 09:18:25;;;;;;;36.83;24.00;;;-0.30;95.70;;;;;;5075992;28;20033;-69
2022/01/09 09:23:36;;;;;;;36.25;23.55;;;-0.30;96.30;;;;;;5075516;28;20070;-69
2022/01/09 09:26:02;;;;;;;34.30;23.73;;;-0.20;96.30;;;;;;5074802;28;20020;-69
2022/01/09 09:28:28;;;;;;;36.72;23.48;;;-0.20;95.90;;;;;;5075383;28;20036;-69
2022/01/09 09:30:53;;;;;;;35.72;24.48;;;-0.20;95.70;;;;;;5075240;28;20032;-69
2022/01/09 09:33:19;;;;;;;34.95;24.75;;;-0.20;95.50;;;;;;5074958;28;20062;-69
2022/01/09 09:35:45;;;;;;;38.47;25.80;;;-0.10;95.70;;;;;;5075657;28;20052;-69
2022/01/09 09:38:10;;;;;;;38.85;25.67;;;-0.10;95.60;;;;;;5074580;28;20029;-68
2022/01/09 09:40:37;;;;;;;39.08;25.83;;;-0.10;95.00;;;;;;5075152;28;20035;-69
2022/01/09 09:43:03;;;;;;;37.75;24.25;;;-0.10;95.50;;;;;;5074821;28;20078;-68
2022/01/09 09:45:29;;;;;;;33.92;22.42;;;-0.10;95.50;;;;;;5075293;28;20024;-69
2022/01/09 09:47:55;;;;;;;35.25;23.58;;;-0.10;95.40;;;;;;5075100;28;20052;-69
2022/01/09 09:50:21;;;;;;;36.63;23.85;;;0.00;95.20;;;;;;5074673;28;20025;-69
2022/01/09 09:52:48;;;;;;;34.70;22.52;;;0.00;94.80;;;;;;5074743;28;20056;-70
2022/01/09 09:55:15;;;;;;;35.80;23.63;;;0.00;94.30;;;;;;5074723;28;20061;-69
2022/01/09 09:57:41;;;;;;;34.97;23.13;;;0.00;94.60;;;;;;5074930;28;20506;-69
2022/01/09 10:00:11;;;;;;;37.25;24.15;;;0.10;94.20;;;;;;5056449;28;20056;-69
2022/01/09 10:02:54;;;;;;;38.03;24.23;;;0.10;94.20;;;;;;5057124;28;20094;-69
2022/01/09 10:05:23;;;;;;;37.38;24.58;;;0.10;94.20;;;;;;5074415;28;20442;-68
2022/01/09 10:07:50;;;;;;;36.92;24.80;;;0.00;93.90;;;;;;5074557;28;20064;-69
2022/01/09 10:10:19;;;;;;;40.28;25.30;;;0.10;94.20;;;;;;5074644;28;20021;-69
2022/01/09 10:12:46;;;;;;;35.80;24.52;;;0.00;93.70;;;;;;5075085;28;20469;-69
2022/01/09 10:15:17;;;;;;;39.17;25.40;;;0.10;94.50;;;;;;5073313;28;20024;-68
2022/01/09 10:17:47;;;;;;;40.03;23.55;;;0.10;94.50;;;;;;5074959;28;20036;-70
2022/01/09 10:20:14;;;;;;;37.67;23.95;;;0.10;94.30;;;;;;5074239;28;20119;-69
2022/01/09 10:22:48;;;;;;;39.05;22.98;;;0.10;94.20;;;;;;5074647;28;20463;-69
2022/01/09 10:25:23;;;;;;;46.17;25.98;;;0.20;94.60;;;;;;5074114;28;20039;-69
2022/01/09 10:27:51;;;;;;;39.63;25.38;;;0.20;94.80;;;;;;5074389;28;20086;-69
2022/01/09 10:30:22;;;;;;;37.22;23.60;;;0.30;94.70;;;;;;5073981;28;20461;-70
2022/01/09 10:32:52;;;;;;;38.33;24.80;;;0.30;94.50;;;;;;5074634;28;20021;-69
2022/01/09 10:35:19;;;;;;;36.33;24.47;;;0.30;94.30;;;;;;5073835;28;20056;-70
2022/01/09 10:37:47;;;;;;;32.35;23.63;;;0.30;94.20;;;;;;5074029;28;20272;-69
2022/01/09 10:40:42;;;;;;;36.95;24.40;;;0.30;94.20;;;;;;5073764;28;20112;-69
2022/01/09 10:43:21;;;;;;;35.75;24.48;;;0.40;94.70;;;;;;5075663;28;20029;-69
2022/01/09 10:46:01;;;;;;;34.65;24.08;;;0.40;94.70;;;;;;5077081;28;20033;-68
2022/01/09 10:48:39;;;;;;;41.88;24.73;;;0.50;94.80;;;;;;5074130;28;20062;-68
2022/01/09 10:51:07;;;;;;;35.63;23.17;;;0.50;94.70;;;;;;5074276;28;20033;-70
2022/01/09 10:53:36;;;;;;;37.58;23.75;;;0.50;94.80;;;;;;5057116;28;20052;-69
2022/01/09 10:56:04;;;;;;;38.20;24.20;;;0.60;94.50;;;;;;5073520;28;20546;-71
2022/01/09 10:58:34;;;;;;;39.95;24.40;;;0.60;94.40;;;;;;5073977;28;20033;-69
2022/01/09 11:01:14;;;;;;;40.05;25.08;;;0.70;94.60;;;;;;5056545;28;20028;-69
2022/01/09 11:03:41;;;;;;;36.28;24.17;;;0.80;94.60;;;;;;5075905;28;20024;-69
2022/01/09 11:06:09;;;;;;;38.60;24.55;;;0.90;94.60;;;;;;5074727;28;20027;-69
2022/01/09 11:08:36;;;;;;;38.47;24.00;;;0.90;93.80;;;;;;5074441;28;20044;-69
2022/01/09 11:11:06;;;;;;;34.53;23.92;;;0.90;93.20;;;;;;5073983;28;20090;-68
2022/01/09 11:13:34;;;;;;;35.78;23.33;;;0.80;92.90;;;;;;5073432;28;20115;-68
2022/01/09 11:18:45;;;;;;;39.20;23.65;;;0.80;93.10;;;;;;5073311;28;20538;-68
2022/01/09 11:21:11;;;;;;;34.95;22.90;;;0.90;93.40;;;;;;5072956;28;20028;-70
2022/01/09 11:23:57;;;;;;;42.60;25.05;;;0.90;93.40;;;;;;5073641;28;20036;-69
2022/01/09 11:26:30;;;;;;;34.45;22.90;;;1.00;93.70;;;;;;5072849;28;20035;-69
2022/01/09 11:28:57;;;;;;;36.75;23.13;;;1.00;93.40;;;;;;5073495;28;20029;-69
2022/01/09 11:31:32;;;;;;;34.88;22.65;;;1.00;93.00;;;;;;5054909;28;20052;-69
2022/01/09 11:34:00;;;;;;;31.48;21.35;;;1.00;92.90;;;;;;5073445;28;20016;-70
2022/01/09 11:36:37;;;;;;;37.10;22.33;;;1.00;92.80;;;;;;5054732;28;20347;-71
2022/01/09 11:39:36;;;;;;;33.35;22.13;;;1.10;92.70;;;;;;5073022;28;20021;-69
2022/01/09 11:42:19;;;;;;;35.40;22.10;;;1.10;92.50;;;;;;5059340;28;20090;-69
2022/01/09 11:44:54;;;;;;;34.20;21.70;;;1.10;92.50;;;;;;5055093;28;20111;-69
2022/01/09 11:47:23;;;;;;;33.33;19.90;;;1.20;92.40;;;;;;5072012;28;20033;-69
2022/01/09 11:49:52;;;;;;;30.42;20.90;;;1.20;92.40;;;;;;5072861;28;20408;-69
2022/01/09 11:52:19;;;;;;;33.08;21.27;;;1.20;91.80;;;;;;5072328;28;20020;-69
2022/01/09 11:54:50;;;;;;;33.55;22.23;;;1.20;91.50;;;;;;5072379;28;20474;-69
2022/01/09 11:57:33;;;;;;;35.72;22.02;;;1.30;91.50;;;;;;5072547;28;20115;-69
2022/01/09 11:59:59;;;;;;;37.22;21.42;;;1.30;91.30;;;;;;5074114;28;20035;-69
2022/01/09 12:02:27;;;;;;;32.65;19.38;;;1.30;91.00;;;;;;5074150;28;20029;-69
2022/01/09 12:04:58;;;;;;;28.02;20.35;;;1.30;90.60;;;;;;5056223;28;20035;-69
2022/01/09 12:07:32;;;;;;;32.97;20.73;;;1.30;90.40;;;;;;5073733;28;20036;-70
2022/01/09 12:09:59;;;;;;;38.13;22.48;;;1.30;90.60;;;;;;5073195;28;20028;-70
2022/01/09 12:12:37;;;;;;;31.92;20.42;;;1.20;90.90;;;;;;5072239;28;20055;-68
2022/01/09 12:15:05;;;;;;;35.78;20.48;;;1.20;90.70;;;;;;5073614;28;20028;-71
2022/01/09 12:17:34;;;;;;;29.70;19.67;;;1.20;91.20;;;;;;5072881;28;20159;-69
2022/01/09 12:20:04;;;;;;;28.63;19.42;;;1.30;91.10;;;;;;5073038;28;20119;-69
2022/01/09 12:22:53;;;;;;;31.00;19.93;;;1.30;90.80;;;;;;5072130;28;20037;-69
2022/01/09 12:25:30;;;;;;;28.55;18.95;;;1.30;90.90;;;;;;5071754;28;20246;-68
2022/01/09 12:28:15;;;;;;;31.08;19.50;;;1.30;91.00;;;;;;5074164;28;20032;-68
2022/01/09 12:30:43;;;;;;;32.33;19.88;;;1.30;91.00;;;;;;5077014;28;20446;-68
2022/01/09 12:33:16;;;;;;;30.70;19.30;;;1.40;91.10;;;;;;5076678;28;20400;-69
2022/01/09 12:35:48;;;;;;;37.22;20.52;;;1.40;91.10;;;;;;5074537;28;20025;-69
2022/01/09 12:38:19;;;;;;;28.25;19.13;;;1.50;90.60;;;;;;5072238;28;20393;-69
2022/01/09 12:40:46;;;;;;;28.05;18.38;;;1.50;90.90;;;;;;5076459;28;20382;-69
2022/01/09 12:43:13;;;;;;;28.27;18.40;;;1.50;90.20;;;;;;5079323;28;20052;-69